Time;durP1;ratioP1;P1;durP2;ratioP2;P2;SDS_P1;SDS_P2;PMS_P1;PMS_P2;Temp;Humidity;BMP_temperature;BMP_pressure;BME280_temperature;BME280_humidity;BME280_pressure;Samples;Min_cycle;Max_cycle;Signal;HPM_P1;HPM_P2
2022/06/12 00:00:13;;;;;;;21.83;9.13;;;23.40;61.20;;;;;;5011648;28;20037;-71
2022/06/12 00:02:38;;;;;;;22.00;9.38;;;23.30;61.10;;;;;;5013717;28;20037;-71
2022/06/12 00:05:05;;;;;;;20.20;9.20;;;23.40;61.20;;;;;;4996568;28;20319;-71
2022/06/12 00:07:31;;;;;;;23.13;9.10;;;23.30;61.20;;;;;;5013318;28;20546;-71
2022/06/12 00:09:57;;;;;;;16.05;8.20;;;23.30;61.20;;;;;;5012670;28;20036;-71
2022/06/12 00:12:23;;;;;;;18.17;8.52;;;23.40;61.20;;;;;;5013433;28;20044;-71
2022/06/12 00:14:48;;;;;;;17.45;8.23;;;23.30;61.20;;;;;;5010828;28;20037;-71
2022/06/12 00:17:14;;;;;;;18.33;8.80;;;23.40;61.20;;;;;;5011369;28;20034;-71
2022/06/12 00:19:44;;;;;;;23.00;8.57;;;23.30;61.20;;;;;;5013314;28;20030;-71
2022/06/12 00:22:11;;;;;;;19.92;8.77;;;23.30;61.20;;;;;;5012455;28;20372;-70
2022/06/12 00:24:37;;;;;;;18.95;8.48;;;23.30;61.20;;;;;;5013429;28;20367;-71
2022/06/12 00:27:03;;;;;;;18.30;8.57;;;23.30;61.20;;;;;;5013024;28;20030;-71
2022/06/12 00:29:32;;;;;;;19.05;7.88;;;23.30;61.20;;;;;;5013009;28;20041;-71
2022/06/12 00:32:17;;;;;;;19.67;8.67;;;23.30;61.20;;;;;;5011321;28;20026;-71
2022/06/12 00:34:53;;;;;;;16.58;7.85;;;23.30;61.20;;;;;;5012845;28;20037;-71
2022/06/12 00:37:22;;;;;;;19.70;7.68;;;23.30;61.20;;;;;;5012502;28;20109;-71
2022/06/12 00:39:50;;;;;;;16.85;6.97;;;23.30;61.10;;;;;;5012103;28;20371;-71
2022/06/12 00:42:37;;;;;;;18.17;7.35;;;23.40;61.10;;;;;;5012734;28;20385;-71
2022/06/12 00:45:46;;;;;;;15.18;7.32;;;23.30;61.20;;;;;;5013159;28;20026;-71
2022/06/12 00:48:18;;;;;;;16.95;6.68;;;23.40;61.20;;;;;;5005244;28;20061;-71
2022/06/12 00:51:11;;;;;;;14.38;7.07;;;23.30;61.20;;;;;;4996441;28;20030;-71
2022/06/12 00:53:58;;;;;;;15.38;6.82;;;23.30;61.20;;;;;;4993095;28;20031;-72
2022/06/12 00:56:29;;;;;;;13.50;6.82;;;23.30;61.20;;;;;;4991925;28;20656;-71
2022/06/12 00:59:03;;;;;;;16.13;6.40;;;23.30;61.20;;;;;;4993990;28;20371;-72
2022/06/12 01:01:38;;;;;;;13.10;6.43;;;23.30;61.20;;;;;;4993377;28;20022;-72
2022/06/12 01:06:51;;;;;;;14.55;5.97;;;23.30;61.30;;;;;;5012289;28;20028;-72
2022/06/12 01:09:25;;;;;;;18.65;6.53;;;23.30;61.30;;;;;;5010987;28;20117;-72
2022/06/12 01:11:53;;;;;;;17.33;6.07;;;23.30;61.20;;;;;;4994546;28;20034;-72
2022/06/12 01:14:26;;;;;;;14.15;6.55;;;23.30;61.30;;;;;;5010875;28;20383;-72
2022/06/12 01:16:56;;;;;;;14.18;6.32;;;23.30;61.30;;;;;;5011957;28;20029;-71
2022/06/12 01:19:34;;;;;;;;;;;23.30;61.90;;;;;;5012415;28;20041;-72
2022/06/12 01:22:26;;;;;;;13.13;5.93;;;23.30;61.20;;;;;;5010598;28;20406;-71
2022/06/12 01:25:09;;;;;;;11.65;5.50;;;23.30;61.20;;;;;;5011072;28;20026;-72
2022/06/12 01:27:46;;;;;;;13.40;5.78;;;23.30;61.20;;;;;;5009842;28;20060;-72
2022/06/12 01:30:42;;;;;;;13.35;5.70;;;23.30;61.20;;;;;;4994679;28;20034;-71
2022/06/12 01:33:28;;;;;;;12.05;5.28;;;23.30;61.20;;;;;;5002884;28;20103;-72
2022/06/12 01:36:06;;;;;;;11.68;5.78;;;23.30;61.20;;;;;;5010842;28;20561;-72
2022/06/12 01:38:55;;;;;;;10.50;5.28;;;23.30;61.20;;;;;;5010690;28;20048;-71
2022/06/12 01:41:39;;;;;;;11.75;5.43;;;23.30;61.20;;;;;;5009949;28;20026;-71
2022/06/12 01:44:23;;;;;;;11.35;5.43;;;23.30;61.20;;;;;;5011785;28;20040;-72
2022/06/12 01:46:56;;;;;;;13.23;5.32;;;23.30;61.20;;;;;;5010841;28;20084;-71
2022/06/12 01:49:36;;;;;;;10.23;4.75;;;23.30;61.20;;;;;;5011738;28;20034;-72
2022/06/12 01:52:22;;;;;;;12.48;5.63;;;23.30;61.20;;;;;;5009302;28;20453;-72
2022/06/12 01:55:02;;;;;;;12.43;5.32;;;23.30;61.30;;;;;;5011837;28;20117;-72
2022/06/12 01:57:39;;;;;;;10.85;4.90;;;23.30;61.20;;;;;;5010736;28;20056;-71
2022/06/12 02:00:13;;;;;;;9.07;5.30;;;23.30;61.20;;;;;;5011898;28;20053;-71
2022/06/12 02:02:53;;;;;;;9.48;4.53;;;23.30;61.20;;;;;;5009825;28;20450;-72
2022/06/12 02:05:30;;;;;;;9.85;4.93;;;23.30;61.30;;;;;;5009967;28;20129;-71
2022/06/12 02:08:05;;;;;;;9.60;4.85;;;23.30;61.30;;;;;;5010956;28;20025;-71
2022/06/12 02:10:40;;;;;;;10.63;5.10;;;23.30;61.20;;;;;;5011780;28;20033;-72
2022/06/12 02:13:15;;;;;;;11.45;5.18;;;23.30;61.30;;;;;;4993674;28;20085;-72
2022/06/12 02:15:44;;;;;;;10.75;4.80;;;23.30;61.40;;;;;;5011668;28;20053;-72
2022/06/12 02:18:23;;;;;;;9.65;4.95;;;23.20;61.40;;;;;;5008724;28;20026;-72
2022/06/12 02:21:07;;;;;;;12.95;5.20;;;23.30;61.40;;;;;;5011538;28;20026;-72
2022/06/12 02:23:55;;;;;;;15.15;4.97;;;23.30;61.30;;;;;;5011233;28;20112;-72
2022/06/12 02:26:26;;;;;;;10.45;5.10;;;23.30;61.30;;;;;;4991940;28;20069;-71
2022/06/12 02:29:00;;;;;;;9.13;4.97;;;23.30;61.30;;;;;;4990139;28;20057;-71
2022/06/12 02:31:31;;;;;;;7.65;4.90;;;23.30;61.20;;;;;;4999310;28;20504;-71
2022/06/12 02:34:06;;;;;;;8.63;4.75;;;23.30;61.20;;;;;;5009533;28;20061;-72
2022/06/12 02:36:37;;;;;;;8.07;4.43;;;23.30;61.20;;;;;;5011523;28;20072;-72
2022/06/12 02:39:24;;;;;;;10.75;4.65;;;23.30;61.20;;;;;;5010408;28;20026;-71
2022/06/12 02:42:03;;;;;;;9.18;5.10;;;23.30;61.10;;;;;;5014168;28;20030;-72
2022/06/12 02:44:42;;;;;;;9.48;4.70;;;23.30;61.20;;;;;;4997466;28;20026;-71
2022/06/12 02:47:20;;;;;;;11.35;4.65;;;23.30;61.20;;;;;;5014208;28;20506;-71
2022/06/12 02:49:48;;;;;;;9.48;5.05;;;23.20;61.10;;;;;;5015057;28;20030;-72
2022/06/12 02:52:41;;;;;;;12.43;4.80;;;23.30;61.20;;;;;;5013301;28;20120;-71
2022/06/12 02:55:22;;;;;;;9.95;4.78;;;23.30;61.30;;;;;;5015117;28;20035;-71
2022/06/12 02:58:13;;;;;;;12.00;4.78;;;23.30;61.20;;;;;;5014733;28;20112;-72
2022/06/12 03:00:59;;;;;;;7.95;4.22;;;23.20;61.20;;;;;;4988761;28;20034;-72
2022/06/12 03:03:47;;;;;;;10.25;4.93;;;23.30;61.20;;;;;;5006668;28;20375;-72
2022/06/12 03:06:14;;;;;;;9.43;4.40;;;23.30;61.20;;;;;;5013397;28;20033;-71
2022/06/12 03:08:44;;;;;;;10.45;4.25;;;23.20;61.20;;;;;;5013119;28;20561;-72
2022/06/12 03:11:15;;;;;;;10.85;4.90;;;23.20;61.20;;;;;;5013620;28;20032;-72
2022/06/12 03:13:42;;;;;;;9.88;4.72;;;23.20;61.10;;;;;;5013505;28;20053;-72
2022/06/12 03:16:08;;;;;;;10.77;4.40;;;23.30;61.20;;;;;;5011872;28;20030;-72
2022/06/12 03:18:38;;;;;;;7.70;4.18;;;23.30;61.30;;;;;;5014000;28;20100;-72
2022/06/12 03:21:05;;;;;;;9.05;4.38;;;23.30;61.20;;;;;;5014758;28;20029;-72
2022/06/12 03:23:59;;;;;;;10.88;4.57;;;23.30;61.30;;;;;;5014272;28;20569;-72
2022/06/12 03:26:38;;;;;;;11.25;4.72;;;23.30;61.20;;;;;;5014636;28;20441;-72
2022/06/12 03:29:09;;;;;;;;;;;23.30;61.10;;;;;;5010990;28;20038;-72
2022/06/12 03:31:46;;;;;;;10.43;4.45;;;23.30;61.10;;;;;;5014262;28;20259;-72
2022/06/12 03:34:47;;;;;;;10.15;4.40;;;23.30;61.20;;;;;;5014045;28;20110;-72
2022/06/12 03:37:27;;;;;;;10.90;4.85;;;23.30;61.20;;;;;;5014237;28;20025;-72
2022/06/12 03:40:08;;;;;;;7.57;4.13;;;23.30;61.20;;;;;;5014123;28;20029;-71
2022/06/12 03:43:05;;;;;;;7.43;4.30;;;23.30;61.10;;;;;;4996442;28;20494;-72
2022/06/12 03:46:33;;;;;;;7.95;3.90;;;23.30;61.20;;;;;;5005840;28;20045;-71
2022/06/12 03:49:21;;;;;;;7.45;3.90;;;23.30;61.20;;;;;;4986855;28;20042;-71
2022/06/12 03:52:00;;;;;;;8.18;4.35;;;23.20;61.10;;;;;;4992443;28;20502;-71
2022/06/12 03:54:52;;;;;;;7.75;3.95;;;23.20;61.20;;;;;;4994175;28;20034;-72
2022/06/12 03:57:53;;;;;;;8.50;4.03;;;23.20;61.10;;;;;;4986642;28;20049;-71
2022/06/12 04:00:34;;;;;;;7.53;4.22;;;23.20;61.10;;;;;;5005857;28;20022;-72
2022/06/12 04:03:13;;;;;;;9.40;4.57;;;23.20;61.10;;;;;;5013907;28;20038;-72
2022/06/12 04:05:43;;;;;;;9.55;4.22;;;23.20;61.10;;;;;;5012314;28;20060;-72
2022/06/12 04:08:15;;;;;;;8.13;4.40;;;23.20;61.10;;;;;;5013245;28;20099;-71
2022/06/12 04:10:41;;;;;;;9.07;4.50;;;23.20;61.10;;;;;;5012709;28;20022;-72
2022/06/12 04:13:11;;;;;;;10.38;4.20;;;23.20;61.10;;;;;;5013553;28;20026;-71
2022/06/12 04:15:45;;;;;;;11.63;4.25;;;23.30;61.20;;;;;;5012233;28;20037;-72
2022/06/12 04:18:12;;;;;;;9.27;4.10;;;23.30;61.20;;;;;;5013187;28;20416;-71
2022/06/12 04:20:37;;;;;;;7.10;3.55;;;23.30;61.10;;;;;;5012194;28;20022;-72
2022/06/12 04:23:16;;;;;;;7.68;4.00;;;23.30;61.00;;;;;;5013246;28;20026;-71
2022/06/12 04:25:47;;;;;;;6.50;3.90;;;23.30;60.90;;;;;;5002143;28;20076;-72
2022/06/12 04:28:33;;;;;;;8.02;4.03;;;23.20;60.90;;;;;;5012384;28;20478;-72
2022/06/12 04:31:01;;;;;;;6.90;3.90;;;23.30;61.00;;;;;;5013265;28;20018;-71
2022/06/12 04:33:41;;;;;;;10.85;3.97;;;23.30;60.90;;;;;;5012998;28;20032;-71
2022/06/12 04:36:10;;;;;;;7.07;4.05;;;23.20;61.00;;;;;;5013217;28;20022;-71
2022/06/12 04:38:37;;;;;;;9.43;4.13;;;23.30;61.10;;;;;;5012055;28;20398;-71
2022/06/12 04:41:03;;;;;;;7.60;4.25;;;23.20;61.10;;;;;;5012847;28;20100;-71
2022/06/12 04:43:29;;;;;;;7.50;3.92;;;23.20;61.10;;;;;;5012878;28;20521;-71
2022/06/12 04:45:56;;;;;;;7.05;3.75;;;23.20;61.00;;;;;;5013065;28;20117;-71
2022/06/12 04:48:32;;;;;;;7.00;3.97;;;23.20;61.10;;;;;;5012392;28;20034;-71
2022/06/12 04:50:58;;;;;;;6.30;3.72;;;23.20;61.10;;;;;;5013209;28;20057;-71
2022/06/12 04:53:25;;;;;;;7.50;3.60;;;23.20;61.10;;;;;;5009726;28;20026;-71
2022/06/12 04:55:51;;;;;;;8.50;4.53;;;23.20;61.10;;;;;;5012491;28;20506;-71
2022/06/12 04:58:17;;;;;;;6.63;3.67;;;23.20;61.10;;;;;;5012021;28;20030;-71
2022/06/12 05:00:43;;;;;;;7.55;3.63;;;23.20;61.20;;;;;;5012969;28;20060;-71
2022/06/12 05:03:11;;;;;;;7.38;3.63;;;23.20;61.20;;;;;;5012236;28;20049;-71
2022/06/12 05:05:37;;;;;;;7.93;4.00;;;23.20;61.20;;;;;;5012678;28;20026;-71
2022/06/12 05:08:03;;;;;;;7.00;3.60;;;23.20;61.10;;;;;;5011273;28;20030;-71
2022/06/12 05:10:28;;;;;;;5.85;3.63;;;23.20;61.10;;;;;;5012373;28;20041;-71
2022/06/12 05:12:54;;;;;;;9.85;4.10;;;23.20;61.30;;;;;;5012442;28;20045;-71
2022/06/12 05:15:21;;;;;;;8.88;3.78;;;23.20;61.30;;;;;;5012640;28;20479;-71
2022/06/12 05:17:48;;;;;;;9.15;3.83;;;23.20;61.20;;;;;;5011951;28;20030;-71
2022/06/12 05:20:20;;;;;;;7.57;3.88;;;23.20;61.20;;;;;;5012189;28;20049;-71
2022/06/12 05:22:47;;;;;;;6.93;3.60;;;23.20;61.30;;;;;;5009604;28;20030;-71
2022/06/12 05:25:13;;;;;;;8.23;3.97;;;23.20;61.20;;;;;;5012035;28;20030;-71
2022/06/12 05:27:40;;;;;;;5.72;3.10;;;23.30;61.30;;;;;;5011936;28;20026;-71
2022/06/12 05:30:07;;;;;;;6.38;3.50;;;23.30;61.40;;;;;;5012089;28;20036;-71
2022/06/12 05:32:33;;;;;;;7.95;3.65;;;23.20;61.30;;;;;;5012094;28;20040;-73
2022/06/12 05:34:59;;;;;;;6.53;3.75;;;23.20;62.00;;;;;;5011898;28;20058;-70
2022/06/12 05:37:25;;;;;;;6.20;3.42;;;23.20;61.40;;;;;;5007068;28;20148;-71
2022/06/12 05:39:51;;;;;;;9.00;3.70;;;23.20;62.00;;;;;;5011894;28;20697;-71
2022/06/12 05:42:17;;;;;;;5.75;3.40;;;23.30;61.50;;;;;;5011891;28;20018;-70
2022/06/12 05:44:43;;;;;;;6.60;3.65;;;23.20;61.60;;;;;;5012101;28;20076;-71
2022/06/12 05:47:10;;;;;;;7.25;3.85;;;23.30;61.80;;;;;;5010409;28;20080;-70
2022/06/12 05:49:36;;;;;;;7.57;3.47;;;23.20;61.80;;;;;;5009758;28;20755;-70
2022/06/12 05:52:02;;;;;;;7.90;3.72;;;23.30;61.80;;;;;;5010818;28;20058;-71
2022/06/12 05:54:28;;;;;;;6.80;3.60;;;23.30;61.80;;;;;;5010446;28;20041;-71
2022/06/12 05:56:54;;;;;;;6.70;4.00;;;23.20;61.80;;;;;;5011457;28;20030;-72
2022/06/12 05:59:19;;;;;;;8.40;3.80;;;23.20;61.80;;;;;;5011311;28;20030;-72
2022/06/12 06:01:45;;;;;;;6.53;3.75;;;23.20;61.70;;;;;;4994197;28;20033;-72
2022/06/12 06:04:11;;;;;;;5.40;3.58;;;23.30;61.90;;;;;;5011596;28;20030;-72
2022/06/12 06:06:52;;;;;;;7.18;3.63;;;23.20;61.90;;;;;;5010566;28;20469;-72
2022/06/12 06:09:19;;;;;;;7.50;3.55;;;23.30;62.80;;;;;;4990441;28;20092;-72
2022/06/12 06:11:46;;;;;;;6.95;3.75;;;23.30;62.80;;;;;;4992145;28;20403;-72
2022/06/12 06:14:12;;;;;;;8.25;3.97;;;23.30;62.80;;;;;;4991340;28;20050;-72
2022/06/12 06:16:39;;;;;;;7.28;4.00;;;23.30;62.80;;;;;;4991895;28;20057;-72
2022/06/12 06:19:06;;;;;;;6.85;4.03;;;23.30;63.10;;;;;;4991943;28;20069;-71
2022/06/12 06:21:31;;;;;;;7.53;4.18;;;23.30;63.20;;;;;;5010122;28;20732;-72
2022/06/12 06:23:57;;;;;;;5.85;3.33;;;23.30;63.00;;;;;;5011076;28;20041;-72
2022/06/12 06:26:23;;;;;;;8.40;3.88;;;23.30;62.50;;;;;;4994038;28;20026;-72
2022/06/12 06:28:51;;;;;;;6.25;3.40;;;23.30;62.70;;;;;;5009478;28;20041;-72
2022/06/12 06:31:17;;;;;;;6.97;3.67;;;23.20;62.20;;;;;;5012324;28;20438;-72
2022/06/12 06:33:43;;;;;;;9.27;3.90;;;23.30;62.60;;;;;;5008726;28;20033;-72
2022/06/12 06:36:10;;;;;;;8.32;4.20;;;23.30;62.60;;;;;;5011149;28;20466;-72
2022/06/12 06:38:38;;;;;;;7.93;4.03;;;23.30;63.50;;;;;;5010658;28;20030;-72
2022/06/12 06:41:05;;;;;;;6.53;3.60;;;23.30;63.70;;;;;;5011242;28;20036;-67
2022/06/12 06:46:13;;;;;;;13.95;6.90;;;23.30;62.90;;;;;;4993652;28;20082;-67
2022/06/12 06:46:17;;;;;;;19.58;9.95;;;23.30;63.80;;;;;;5010939;28;20026;-68
2022/06/12 06:48:43;;;;;;;22.75;16.55;;;23.30;64.90;;;;;;5009320;28;20059;-67
2022/06/12 06:51:09;;;;;;;21.52;12.68;;;23.40;65.00;;;;;;5009627;28;20037;-67
2022/06/12 06:53:35;;;;;;;34.67;20.35;;;23.40;64.80;;;;;;5009954;28;20029;-67
2022/06/12 06:56:26;;;;;;;20.45;11.43;;;23.40;67.00;;;;;;5011763;28;20030;-69
2022/06/12 06:58:52;;;;;;;16.73;11.13;;;23.40;63.90;;;;;;4964315;28;20102;-70
2022/06/12 07:01:19;;;;;;;22.45;12.27;;;23.40;64.10;;;;;;4971386;28;20093;-70
2022/06/12 07:03:45;;;;;;;16.98;11.32;;;23.30;64.40;;;;;;4963606;28;20023;-73
2022/06/12 07:06:12;;;;;;;17.95;11.43;;;23.40;65.90;;;;;;4970760;28;20485;-73
2022/06/12 07:08:39;;;;;;;19.83;9.32;;;23.30;65.60;;;;;;4971376;28;20035;-73
2022/06/12 07:11:04;;;;;;;16.50;9.38;;;23.30;67.00;;;;;;4970482;28;20038;-73
2022/06/12 07:13:30;;;;;;;31.45;8.90;;;23.30;66.90;;;;;;4970531;28;20026;-73
2022/06/12 07:15:56;;;;;;;18.50;8.35;;;23.30;68.90;;;;;;4971004;28;20130;-72
2022/06/12 07:18:22;;;;;;;15.95;8.80;;;23.30;69.40;;;;;;4963981;28;20034;-73
2022/06/12 07:20:54;;;;;;;13.35;6.93;;;23.20;67.30;;;;;;4966278;28;20027;-73
2022/06/12 07:23:22;;;;;;;15.25;6.85;;;23.30;67.90;;;;;;4962933;28;20030;-73
2022/06/12 07:25:53;;;;;;;13.48;6.07;;;23.20;67.90;;;;;;4973482;28;20019;-72
2022/06/12 07:28:19;;;;;;;14.45;6.40;;;23.30;67.80;;;;;;4970945;28;20546;-73
2022/06/12 07:30:47;;;;;;;13.57;6.38;;;23.20;67.10;;;;;;4957627;28;20474;-73
2022/06/12 07:33:13;;;;;;;10.57;6.10;;;23.20;67.50;;;;;;4972516;28;20110;-73
2022/06/12 07:35:41;;;;;;;14.52;6.00;;;23.30;66.80;;;;;;4974144;28;20022;-73
2022/06/12 07:38:07;;;;;;;11.65;5.85;;;23.20;67.60;;;;;;4973068;28;20049;-74
2022/06/12 07:40:37;;;;;;;11.48;5.55;;;23.20;67.40;;;;;;4972735;28;20550;-75
2022/06/12 07:43:03;;;;;;;13.95;6.28;;;23.20;66.90;;;;;;4972416;28;20046;-75
2022/06/12 07:45:30;;;;;;;15.50;5.65;;;23.30;67.10;;;;;;4972712;28;20022;-75
2022/06/12 07:47:56;;;;;;;14.10;5.43;;;23.30;66.50;;;;;;4974380;28;20444;-75
2022/06/12 07:50:22;;;;;;;9.13;5.20;;;23.30;66.10;;;;;;4965623;28;20427;-75
2022/06/12 07:52:48;;;;;;;12.48;4.95;;;23.30;65.90;;;;;;4971248;28;20023;-75
2022/06/12 07:55:16;;;;;;;12.55;5.20;;;23.30;65.80;;;;;;4975006;28;20400;-74
2022/06/12 07:57:44;;;;;;;9.38;4.63;;;23.30;65.70;;;;;;4973445;28;20081;-75
2022/06/12 08:00:13;;;;;;;12.45;4.75;;;23.30;65.60;;;;;;4973502;28;20069;-75
2022/06/12 08:02:43;;;;;;;10.43;4.78;;;23.30;65.60;;;;;;4974687;28;20031;-75
2022/06/12 08:05:10;;;;;;;12.10;4.93;;;23.30;65.60;;;;;;4989575;28;20438;-75
2022/06/12 08:07:36;;;;;;;12.55;4.93;;;23.30;65.70;;;;;;4971036;28;20035;-75
2022/06/12 08:10:03;;;;;;;12.10;5.25;;;23.30;65.80;;;;;;4965171;28;20038;-75
2022/06/12 08:12:32;;;;;;;9.65;4.97;;;23.30;65.70;;;;;;4973518;28;20380;-75
2022/06/12 08:14:58;;;;;;;9.85;4.70;;;23.30;65.50;;;;;;4973317;28;20057;-74
2022/06/12 08:17:24;;;;;;;10.50;4.45;;;23.30;65.40;;;;;;4974218;28;20023;-75
2022/06/12 08:22:34;;;;;;;10.27;4.68;;;23.30;65.50;;;;;;4965738;28;20092;-75
2022/06/12 08:25:00;;;;;;;7.57;4.50;;;23.30;65.50;;;;;;4973118;28;20105;-75
2022/06/12 08:27:26;;;;;;;7.32;4.30;;;23.30;65.40;;;;;;4973820;28;20023;-75
2022/06/12 08:29:51;;;;;;;8.40;4.53;;;23.30;65.40;;;;;;4974232;28;20110;-75
2022/06/12 08:32:20;;;;;;;10.52;4.50;;;23.30;65.70;;;;;;4974173;28;20097;-74
2022/06/12 08:34:54;;;;;;;5.82;4.20;;;23.30;65.50;;;;;;4973170;28;20051;-75
2022/06/12 08:37:25;;;;;;;8.23;4.20;;;23.30;65.60;;;;;;4972094;28;20039;-75
2022/06/12 08:39:52;;;;;;;8.13;3.97;;;23.30;65.50;;;;;;4973848;28;20376;-75
2022/06/12 08:42:36;;;;;;;9.40;4.30;;;23.30;65.40;;;;;;4974106;28;20026;-76
2022/06/12 08:45:25;;;;;;;6.80;4.20;;;23.30;65.30;;;;;;4972951;28;20518;-74
2022/06/12 08:48:29;;;;;;;8.48;4.60;;;23.30;65.30;;;;;;4973048;28;20447;-74
2022/06/12 08:51:02;;;;;;;7.97;4.32;;;23.30;65.30;;;;;;4904905;28;20045;-74
2022/06/12 08:53:37;;;;;;;7.82;4.55;;;23.40;65.40;;;;;;4972557;28;20022;-75
2022/06/12 08:56:10;;;;;;;9.50;4.20;;;23.40;65.20;;;;;;4972940;28;20023;-74
2022/06/12 08:58:43;;;;;;;8.23;4.30;;;23.40;65.20;;;;;;4972455;28;20031;-74
2022/06/12 09:01:10;;;;;;;8.38;4.20;;;23.40;65.30;;;;;;4974072;28;20090;-74
2022/06/12 09:03:39;;;;;;;9.45;4.70;;;23.40;65.20;;;;;;4972150;28;20054;-74
2022/06/12 09:06:43;;;;;;;7.72;4.32;;;23.40;65.20;;;;;;4973765;28;20026;-74
2022/06/12 09:09:24;;;;;;;9.00;4.40;;;23.40;65.00;;;;;;4967739;28;20065;-74
2022/06/12 09:12:15;;;;;;;11.48;4.22;;;23.30;65.00;;;;;;4973809;28;20447;-75
2022/06/12 09:15:13;;;;;;;7.05;3.97;;;23.40;65.00;;;;;;4973183;28;20031;-75
2022/06/12 09:18:00;;;;;;;8.35;3.90;;;23.40;65.00;;;;;;4973158;28;20034;-74
2022/06/12 09:20:29;;;;;;;8.45;3.75;;;23.40;65.00;;;;;;4973349;28;20034;-76
2022/06/12 09:23:23;;;;;;;7.93;3.90;;;23.30;65.00;;;;;;4973574;28;20447;-75
2022/06/12 09:26:12;;;;;;;5.78;3.58;;;23.30;64.90;;;;;;4937890;28;20074;-75
2022/06/12 09:29:21;;;;;;;8.13;3.90;;;23.30;65.00;;;;;;4952188;29;20028;-74
2022/06/12 09:32:28;;;;;;;7.18;3.78;;;23.30;64.90;;;;;;4894719;29;20055;-74
2022/06/12 09:35:09;;;;;;;6.97;4.03;;;23.30;65.50;;;;;;4953717;28;20042;-75
2022/06/12 09:41:10;;;;;;;8.30;4.00;;;23.40;64.90;;;;;;4960137;28;20046;-75
2022/06/12 09:43:36;;;;;;;5.18;3.42;;;23.40;64.80;;;;;;4963319;28;20043;-76
2022/06/12 09:46:26;;;;;;;6.05;3.70;;;23.40;64.80;;;;;;4972891;28;20325;-76
2022/06/12 09:48:56;;;;;;;8.02;3.97;;;23.40;64.70;;;;;;4971597;28;20073;-76
2022/06/12 09:51:41;;;;;;;8.15;3.88;;;23.40;64.70;;;;;;4972916;28;20182;-75
2022/06/12 09:54:13;;;;;;;5.80;3.40;;;23.40;64.60;;;;;;4972694;28;20121;-75
2022/06/12 09:56:41;;;;;;;5.90;3.53;;;23.40;64.60;;;;;;4972853;28;20479;-75
2022/06/12 09:59:17;;;;;;;7.00;3.65;;;23.40;64.60;;;;;;4963501;28;20056;-75
2022/06/12 10:01:47;;;;;;;6.32;3.45;;;23.40;64.60;;;;;;4983152;28;20033;-75
2022/06/12 10:04:40;;;;;;;8.20;4.10;;;23.40;64.60;;;;;;4967390;28;20498;-75
2022/06/12 10:07:13;;;;;;;7.32;3.75;;;23.40;65.20;;;;;;4972391;28;20034;-74
2022/06/12 10:09:54;;;;;;;5.97;3.40;;;23.30;64.40;;;;;;4971386;28;20130;-75
2022/06/12 10:12:26;;;;;;;7.07;3.55;;;23.30;64.60;;;;;;4955802;28;20391;-75
2022/06/12 10:14:56;;;;;;;7.68;3.50;;;23.40;64.70;;;;;;4971258;28;20030;-75
2022/06/12 10:17:33;;;;;;;7.40;3.42;;;23.40;64.60;;;;;;4972082;28;20058;-75
2022/06/12 10:20:02;;;;;;;7.78;4.05;;;23.30;65.20;;;;;;4962345;28;20118;-75
2022/06/12 10:22:35;;;;;;;7.03;3.67;;;23.30;64.40;;;;;;4971008;28;20018;-75
2022/06/12 10:25:05;;;;;;;6.72;3.70;;;23.30;64.50;;;;;;4972435;28;20102;-75
2022/06/12 10:28:01;;;;;;;;;;;23.30;64.60;;;;;;4972406;28;20030;-75
2022/06/12 10:30:42;;;;;;;5.20;3.20;;;23.30;64.50;;;;;;4956099;28;19935;-75
2022/06/12 10:33:15;;;;;;;6.22;3.55;;;23.40;64.60;;;;;;4972333;28;20038;-76
2022/06/12 10:35:56;;;;;;;4.85;3.28;;;23.30;64.40;;;;;;4971211;28;20054;-75
2022/06/12 10:38:27;;;;;;;5.53;3.50;;;23.40;64.50;;;;;;4964687;28;20722;-75
2022/06/12 10:41:05;;;;;;;6.13;3.50;;;23.30;64.60;;;;;;4972385;28;20038;-75
2022/06/12 10:43:57;;;;;;;5.13;3.45;;;23.30;64.50;;;;;;4972080;28;20031;-75
2022/06/12 10:46:30;;;;;;;5.03;3.13;;;23.30;64.30;;;;;;4968684;28;20042;-75
2022/06/12 10:49:05;;;;;;;6.28;3.22;;;23.40;64.40;;;;;;4971805;28;20030;-75
2022/06/12 10:51:36;;;;;;;5.65;3.63;;;23.40;64.30;;;;;;4970554;28;20066;-75
2022/06/12 10:54:27;;;;;;;6.10;3.55;;;23.40;64.30;;;;;;4963887;28;20105;-75
2022/06/12 10:57:24;;;;;;;4.47;3.00;;;23.40;64.20;;;;;;4971731;28;20034;-75
2022/06/12 11:00:01;;;;;;;4.85;3.28;;;23.40;64.10;;;;;;4972752;28;20041;-75
2022/06/12 11:03:06;;;;;;;4.90;3.22;;;23.40;64.20;;;;;;4976188;28;20496;-75
2022/06/12 11:05:49;;;;;;;4.90;3.15;;;23.40;64.30;;;;;;4974985;28;20070;-75
2022/06/12 11:08:36;;;;;;;5.50;3.53;;;23.40;64.20;;;;;;4971069;28;20042;-76
2022/06/12 11:11:13;;;;;;;4.22;2.95;;;23.40;64.80;;;;;;4966411;28;20030;-76
2022/06/12 11:13:52;;;;;;;5.00;3.60;;;23.40;64.20;;;;;;4975713;28;20101;-76
2022/06/12 11:16:59;;;;;;;4.97;3.45;;;23.40;64.70;;;;;;4974765;28;20035;-76
2022/06/12 11:19:40;;;;;;;5.95;3.55;;;23.40;64.30;;;;;;4975350;28;20031;-76
2022/06/12 11:22:23;;;;;;;5.43;3.28;;;23.30;64.10;;;;;;4975724;28;20029;-75
2022/06/12 11:25:10;;;;;;;4.40;3.15;;;23.30;64.20;;;;;;4973123;28;20035;-75
2022/06/12 11:27:45;;;;;;;6.13;3.17;;;23.30;64.30;;;;;;4970379;28;20458;-75
2022/06/12 11:30:47;;;;;;;4.25;3.28;;;23.30;64.20;;;;;;4975276;28;20039;-75
2022/06/12 11:33:38;;;;;;;5.28;3.25;;;23.30;64.00;;;;;;4975511;28;20030;-75
2022/06/12 11:36:21;;;;;;;4.63;3.03;;;23.30;64.10;;;;;;4975167;28;20067;-76
2022/06/12 11:39:06;;;;;;;4.80;3.13;;;23.30;64.10;;;;;;4964723;28;20039;-76
2022/06/12 11:42:13;;;;;;;3.47;2.80;;;23.30;64.00;;;;;;4970636;28;20101;-76
2022/06/12 11:45:18;;;;;;;6.00;3.13;;;23.30;64.00;;;;;;4955850;29;20055;-76
2022/06/12 11:47:59;;;;;;;6.28;3.50;;;23.40;64.00;;;;;;4955726;28;20107;-77
2022/06/12 11:50:48;;;;;;;5.82;3.47;;;23.40;63.90;;;;;;4955652;29;20045;-76
2022/06/12 11:53:50;;;;;;;5.22;3.22;;;23.40;63.80;;;;;;4970638;28;20388;-76
2022/06/12 11:56:51;;;;;;;5.07;3.10;;;23.40;63.80;;;;;;4955326;28;20453;-75
2022/06/12 12:00:03;;;;;;;3.88;2.92;;;23.40;63.80;;;;;;4923682;29;20058;-76
2022/06/12 12:02:33;;;;;;;5.05;2.80;;;23.40;63.80;;;;;;4954288;28;20046;-76
2022/06/12 12:05:29;;;;;;;5.15;3.10;;;23.40;63.80;;;;;;4955643;29;20551;-76
2022/06/12 12:08:35;;;;;;;5.10;3.10;;;23.40;63.70;;;;;;4953855;28;20067;-75
2022/06/12 12:11:28;;;;;;;5.05;3.03;;;23.40;63.70;;;;;;4952880;28;20121;-76
2022/06/12 12:13:58;;;;;;;5.25;3.15;;;23.40;63.80;;;;;;4973619;28;20035;-75
2022/06/12 12:16:29;;;;;;;;;;;23.40;63.70;;;;;;4975143;28;20030;-75
2022/06/12 12:19:04;;;;;;;4.40;2.85;;;23.40;63.90;;;;;;4964873;28;19914;-75
2022/06/12 12:21:39;;;;;;;4.78;3.20;;;23.30;63.70;;;;;;4973617;28;20027;-75
2022/06/12 12:24:07;;;;;;;5.95;3.22;;;23.40;63.70;;;;;;4954736;28;20061;-75
2022/06/12 12:26:38;;;;;;;6.53;3.45;;;23.40;63.70;;;;;;4967448;28;20132;-75
2022/06/12 12:29:10;;;;;;;5.53;3.03;;;23.30;63.90;;;;;;4973922;28;20058;-74
2022/06/12 12:31:36;;;;;;;5.80;3.58;;;23.30;63.70;;;;;;4973038;28;20113;-74
2022/06/12 12:34:07;;;;;;;4.43;2.95;;;23.40;63.70;;;;;;4972526;28;20026;-74
2022/06/12 12:42:27;;;;;;;4.43;3.15;;;23.30;63.50;;;;;;4965539;28;20027;-74
2022/06/12 12:44:53;;;;;;;5.25;3.30;;;23.40;63.70;;;;;;4974127;28;20487;-74
2022/06/12 12:47:22;;;;;;;4.22;3.05;;;23.40;63.70;;;;;;4973631;28;20027;-74
2022/06/12 12:49:49;;;;;;;4.28;2.78;;;23.40;63.60;;;;;;4973827;28;20027;-75
2022/06/12 12:52:18;;;;;;;4.65;3.17;;;23.40;63.50;;;;;;4973923;28;20041;-76
2022/06/12 12:54:56;;;;;;;5.53;3.08;;;23.40;63.50;;;;;;4972828;28;20035;-75
2022/06/12 12:57:39;;;;;;;4.15;2.92;;;23.40;63.60;;;;;;4967727;28;20033;-75
2022/06/12 13:00:19;;;;;;;4.47;2.75;;;23.40;63.50;;;;;;4967602;28;20035;-76
2022/06/12 13:03:06;;;;;;;3.80;2.95;;;23.40;63.40;;;;;;4953413;28;20035;-75
2022/06/12 13:05:47;;;;;;;4.47;3.00;;;23.40;63.60;;;;;;4954750;28;20023;-75
2022/06/12 13:08:13;;;;;;;4.28;2.90;;;23.40;63.50;;;;;;4955513;28;20424;-75
2022/06/12 13:11:03;;;;;;;6.38;3.30;;;23.40;63.40;;;;;;4980336;28;20106;-75
2022/06/12 13:13:53;;;;;;;3.78;2.70;;;23.40;63.60;;;;;;4953060;29;20484;-75
2022/06/12 13:16:46;;;;;;;4.28;2.47;;;23.40;63.60;;;;;;4952877;28;20710;-75
2022/06/12 13:19:35;;;;;;;4.40;2.95;;;23.30;63.50;;;;;;4984805;28;20035;-74
2022/06/12 13:22:25;;;;;;;5.63;3.43;;;23.40;63.40;;;;;;4952989;29;20441;-75
2022/06/12 13:24:55;;;;;;;4.70;2.72;;;23.40;63.60;;;;;;4969644;28;20270;-74
2022/06/12 13:27:26;;;;;;;4.13;2.72;;;23.40;63.70;;;;;;4973568;28;20700;-75
2022/06/12 13:29:53;;;;;;;5.68;2.83;;;23.30;63.50;;;;;;4973166;28;20030;-74
2022/06/12 13:32:32;;;;;;;4.50;2.70;;;23.40;63.60;;;;;;4973632;28;20106;-74
2022/06/12 13:35:23;;;;;;;5.30;2.70;;;23.40;63.60;;;;;;4972081;28;20027;-75
2022/06/12 13:37:55;;;;;;;3.53;2.75;;;23.40;63.60;;;;;;4971661;28;20082;-74
2022/06/12 13:40:34;;;;;;;3.28;2.60;;;23.40;63.40;;;;;;4971007;28;20023;-75
2022/06/12 13:43:11;;;;;;;;;;;23.30;63.30;;;;;;4965421;28;20124;-75